Station Historical Data
Daily Summary for June 19, 2017 Units:  Metric    English   Both
« Previous Day
Next Day »
Daily Weekly Monthly Yearly Custom
  High: Low: Average:
Temperature: 29.7 °C 21.2 °C 23.9 °C
Dew Point: 23.2 °C 19.6 °C 21.2 °C
Humidity: 93% 64% 86%
Wind Speed: 1.6km/h 0km/h 0km/h
Wind Gust: 4.8km/h - -
Wind- - West
Pressure: 1017.5 hPa 1013.1 hPa -
Precipitation: 22.1 mm    
Historical Graphs
 
 
Tabular Data for June 19, 2017
Time Temperature Dew Point Pressure Wind Wind Speed Wind Gust Humidity Rainfall Rate (Hourly) solar Conditions
00:00 23.2 °C 21.5 °C 1014.1 hPa Calm   1.6 km/h 90% 0 mm WeatherDisplay:10.37 W/m2 RA
00:10 23.3 °C 21.6 °C 1014.1 hPa Calm     90% 0 mm WeatherDisplay:10.37 W/m2 CLR
00:20 23.3 °C 21.6 °C 1014.1 hPa Calm     90% 0 mm WeatherDisplay:10.37 W/m2 CLR
00:30 23.3 °C 21.4 °C 1013.8 hPa Calm     89% 0 mm WeatherDisplay:10.37 W/m2 CLR
00:40 23.3 °C 21.4 °C 1013.4 hPa Calm     89% 0 mm WeatherDisplay:10.37 W/m2 CLR
00:50 23.3 °C 21.4 °C 1013.8 hPa Calm     89% 0 mm WeatherDisplay:10.37 W/m2 CLR
01:00 23.3 °C 21.4 °C 1013.4 hPa Calm     89% 0 mm WeatherDisplay:10.37 W/m2 CLR
01:10 23.3 °C 21.4 °C 1013.8 hPa Calm     89% 0 mm WeatherDisplay:10.37 W/m2 CLR
01:20 23.2 °C 21.3 °C 1013.4 hPa Calm     89% 0 mm WeatherDisplay:10.37 W/m2 CLR
01:30 23.2 °C 21.4 °C 1013.4 hPa Calm     90% 0 mm WeatherDisplay:10.37 W/m2 CLR
01:40 23.1 °C 21.4 °C 1013.1 hPa Calm     90% 0 mm WeatherDisplay:10.37 W/m2 CLR
01:50 23 °C 21.3 °C 1013.4 hPa Calm     90% 0 mm WeatherDisplay:10.37 W/m2 CLR
02:00 22.9 °C 21.2 °C 1013.4 hPa Calm     90% 0 mm WeatherDisplay:10.37 W/m2 CLR
02:10 22.8 °C 21.1 °C 1013.1 hPa Calm     90% 0 mm WeatherDisplay:10.37 W/m2 CLR
02:20 22.7 °C 20.9 °C 1013.4 hPa Calm     90% 0 mm WeatherDisplay:10.37 W/m2 CLR
02:30 22.6 °C 20.8 °C 1013.4 hPa Calm     90% 0 mm WeatherDisplay:10.37 W/m2 CLR
02:40 22.4 °C 20.7 °C 1013.4 hPa Calm     90% 0 mm WeatherDisplay:10.37 W/m2 CLR
02:50 22.3 °C 20.8 °C 1013.4 hPa Calm     91% 0 mm WeatherDisplay:10.37 W/m2 CLR
03:00 22.2 °C 20.7 °C 1013.4 hPa Calm     91% 0 mm WeatherDisplay:10.37 W/m2 CLR
03:10 22.1 °C 20.6 °C 1013.4 hPa Calm     91% 0 mm WeatherDisplay:10.37 W/m2 CLR
03:20 22 °C 20.4 °C 1013.4 hPa Calm     91% 0 mm WeatherDisplay:10.37 W/m2 CLR
03:30 21.9 °C 20.3 °C 1013.4 hPa Calm     91% 0 mm WeatherDisplay:10.37 W/m2 CLR
03:40 21.8 °C 20.3 °C 1013.8 hPa Calm     91% 0 mm WeatherDisplay:10.37 W/m2 CLR
03:50 21.8 °C 20.2 °C 1013.8 hPa Calm     91% 0 mm WeatherDisplay:10.37 W/m2 CLR
04:00 21.7 °C 20.2 °C 1013.8 hPa Calm     91% 0 mm WeatherDisplay:10.37 W/m2 CLR
04:10 21.2 °C 19.6 °C 1013.8 hPa Calm     91% 0 mm WeatherDisplay:10.37 W/m2 CLR
04:20 21.2 °C 19.6 °C 1013.8 hPa Calm     91% 0 mm WeatherDisplay:10.37 W/m2 CLR
04:30 21.2 °C 19.6 °C 1013.8 hPa Calm     91% 0 mm WeatherDisplay:10.37 W/m2 CLR
04:40 21.2 °C 19.6 °C 1014.1 hPa Calm     91% 0 mm WeatherDisplay:10.37 W/m2 CLR
05:00 21.2 °C 19.6 °C 1014.1 hPa Calm     91% 0 mm WeatherDisplay:10.37 W/m2 CLR
05:10 21.2 °C 19.6 °C 1014.1 hPa Calm     91% 0 mm WeatherDisplay:10.37 W/m2 CLR
05:20 21.2 °C 19.6 °C 1014.4 hPa Calm     91% 0 mm WeatherDisplay:10.37 W/m2 CLR
05:30 21.2 °C 19.6 °C 1014.4 hPa Calm     91% 0 mm WeatherDisplay:10.37 W/m2 CLR
05:40 21.2 °C 19.6 °C 1014.4 hPa Calm     91% 0 mm WeatherDisplay:10.37 W/m2 CLR
05:50 21.2 °C 19.6 °C 1014.4 hPa Calm     91% 0 mm WeatherDisplay:10.37 W/m2 CLR
06:00 21.2 °C 19.6 °C 1014.4 hPa Calm     91% 0 mm WeatherDisplay:10.37 W/m2 CLR
06:10 21.2 °C 19.6 °C 1014.4 hPa Calm     91% 0 mm WeatherDisplay:10.37 W/m2 CLR
06:30 21.2 °C 19.6 °C 1014.8 hPa Calm     91% 0 mm WeatherDisplay:10.37 W/m2 CLR
06:40 21.2 °C 19.6 °C 1014.8 hPa Calm     91% 0 mm WeatherDisplay:10.37 W/m2 CLR
06:50 21.2 °C 19.6 °C 1014.8 hPa Calm     91% 0 mm WeatherDisplay:10.37 W/m2 CLR
07:00 21.2 °C 19.6 °C 1014.8 hPa Calm     91% 0 mm WeatherDisplay:10.37 W/m2 CLR
07:10 21.2 °C 19.6 °C 1014.8 hPa Calm     91% 0 mm WeatherDisplay:10.37 W/m2 CLR
07:20 21.2 °C 19.6 °C 1014.8 hPa Calm     91% 0 mm WeatherDisplay:10.37 W/m2 CLR
07:30 21.2 °C 19.6 °C 1015.1 hPa Calm     91% 0 mm WeatherDisplay:10.37 W/m2 CLR
07:40 21.2 °C 19.6 °C 1015.1 hPa Calm     91% 0 mm WeatherDisplay:10.37 W/m2 CLR
07:50 21.2 °C 19.6 °C 1015.1 hPa Calm     91% 0 mm WeatherDisplay:10.37 W/m2 CLR
08:00 21.2 °C 19.6 °C 1015.1 hPa Calm     91% 0 mm WeatherDisplay:10.37 W/m2 CLR
08:10 21.2 °C 19.6 °C 1015.1 hPa Calm     91% 0 mm WeatherDisplay:10.37 W/m2 CLR
08:20 21.2 °C 19.6 °C 1015.5 hPa Calm     91% 0 mm WeatherDisplay:10.37 W/m2 CLR
08:30 21.2 °C 19.6 °C 1015.5 hPa Calm     91% 0 mm WeatherDisplay:10.37 W/m2 CLR
08:40 21.2 °C 19.6 °C 1015.5 hPa Calm     91% 0 mm WeatherDisplay:10.37 W/m2 CLR
08:50 21.2 °C 19.6 °C 1015.8 hPa Calm     91% 0 mm WeatherDisplay:10.37 W/m2 CLR
09:00 21.2 °C 19.6 °C 1015.8 hPa Calm     91% 0 mm WeatherDisplay:10.37 W/m2 CLR
09:10 21.2 °C 19.6 °C 1015.8 hPa Calm     91% 0 mm WeatherDisplay:10.37 W/m2 CLR
09:20 21.2 °C 19.6 °C 1015.8 hPa Calm     91% 0 mm WeatherDisplay:10.37 W/m2 CLR
09:30 23.9 °C 21.4 °C 1015.8 hPa Calm   1.6 km/h 86% 0 mm WeatherDisplay:10.37 W/m2 CLR
09:40 24 °C 21.5 °C 1015.8 hPa Calm   1.6 km/h 86% 0 mm WeatherDisplay:10.37 W/m2 CLR
09:50 24.2 °C 21.3 °C 1015.8 hPa Calm   4.8 km/h 84% 0 mm WeatherDisplay:10.37 W/m2 CLR
10:00 24.4 °C 21.5 °C 1015.8 hPa Calm   4.8 km/h 84% 0 mm WeatherDisplay:10.37 W/m2 CLR
10:10 24.6 °C 21.5 °C 1015.5 hPa Calm     83% 0 mm WeatherDisplay:10.37 W/m2 CLR
10:20 24.7 °C 21.4 °C 1015.5 hPa Calm     82% 0 mm WeatherDisplay:10.37 W/m2 CLR
10:30 24.8 °C 21.6 °C 1015.5 hPa Calm   3.2 km/h 82% 0 mm WeatherDisplay:10.37 W/m2 CLR
10:40 24.9 °C 21.4 °C 1015.8 hPa Calm   1.6 km/h 81% 0 mm WeatherDisplay:10.37 W/m2 CLR
10:50 25 °C 21.3 °C 1015.8 hPa Calm   1.6 km/h 80% 0 mm WeatherDisplay:10.37 W/m2 CLR
11:00 25.1 °C 21.8 °C 1015.8 hPa Calm   1.6 km/h 82% 0 mm WeatherDisplay:10.37 W/m2 CLR
11:10 25 °C 21.3 °C 1016.1 hPa Calm   1.6 km/h 80% 0 mm WeatherDisplay:10.37 W/m2 CLR
11:20 25.2 °C 21.5 °C 1015.8 hPa Calm   3.2 km/h 80% 0 mm WeatherDisplay:10.37 W/m2 CLR
11:30 25.9 °C 21.9 °C 1015.8 hPa Calm   3.2 km/h 79% 0 mm WeatherDisplay:10.37 W/m2 CLR
11:40 26.4 °C 22 °C 1015.8 hPa Calm   1.6 km/h 77% 0 mm WeatherDisplay:10.37 W/m2 CLR
11:50 26.6 °C 22.1 °C 1015.8 hPa Calm   3.2 km/h 76% 0 mm WeatherDisplay:10.37 W/m2 CLR
12:00 26.8 °C 22 °C 1015.8 hPa Calm   1.6 km/h 75% 0 mm WeatherDisplay:10.37 W/m2 CLR
12:10 27.5 °C 22.4 °C 1015.8 hPa Calm   1.6 km/h 74% 0 mm WeatherDisplay:10.37 W/m2 CLR
12:20 27.7 °C 22 °C 1015.8 hPa Calm   1.6 km/h 71% 0 mm WeatherDisplay:10.37 W/m2 CLR
12:30 27.7 °C 22.7 °C 1015.5 hPa Calm   3.2 km/h 74% 0 mm WeatherDisplay:10.37 W/m2 CLR
12:40 27.8 °C 22.5 °C 1015.8 hPa Calm   3.2 km/h 73% 0 mm WeatherDisplay:10.37 W/m2 CLR
12:50 27.9 °C 22.1 °C 1015.8 hPa Calm   1.6 km/h 71% 0 mm WeatherDisplay:10.37 W/m2 CLR
13:00 28.2 °C 22.7 °C 1015.8 hPa Calm   1.6 km/h 72% 0 mm WeatherDisplay:10.37 W/m2 CLR
13:10 28.1 °C 21.9 °C 1015.8 hPa Calm   1.6 km/h 69% 0 mm WeatherDisplay:10.37 W/m2 CLR
13:20 28.4 °C 22.7 °C 1015.8 hPa Calm   1.6 km/h 71% 0 mm WeatherDisplay:10.37 W/m2 CLR
13:30 29.4 °C 23.2 °C 1015.8 hPa Calm   1.6 km/h 69% 0 mm WeatherDisplay:10.37 W/m2 CLR
13:40 29.7 °C 22.2 °C 1015.5 hPa Calm   1.6 km/h 64% 0 mm WeatherDisplay:10.37 W/m2 CLR
14:00 29.4 °C 22.7 °C 1015.5 hPa Calm   1.6 km/h 67% 0 mm WeatherDisplay:10.37 W/m2 CLR
14:20 29.1 °C 22.6 °C 1015.1 hPa Calm   3.2 km/h 68% 0 mm WeatherDisplay:10.37 W/m2 CLR
14:30 29 °C 22.5 °C 1015.1 hPa Calm   1.6 km/h 68% 0 mm WeatherDisplay:10.37 W/m2 CLR
14:40 29.4 °C 22.1 °C 1014.8 hPa Calm   1.6 km/h 65% 0 mm WeatherDisplay:10.37 W/m2 CLR
14:50 29.3 °C 22.1 °C 1014.8 hPa Calm   1.6 km/h 65% 0 mm WeatherDisplay:10.37 W/m2 CLR
15:00 28.9 °C 22.7 °C 1014.4 hPa Calm   1.6 km/h 69% 0 mm WeatherDisplay:10.37 W/m2 CLR
15:10 28.7 °C 22.6 °C 1014.4 hPa Calm   1.6 km/h 70% 0 mm WeatherDisplay:10.37 W/m2 CLR
15:20 28.6 °C 22.3 °C 1014.4 hPa Calm   4.8 km/h 69% 0 mm WeatherDisplay:10.37 W/m2 CLR
15:30 28.7 °C 22.2 °C 1014.4 hPa Calm   1.6 km/h 68% 0 mm WeatherDisplay:10.37 W/m2 CLR
15:40 28.9 °C 21.9 °C 1014.1 hPa Calm     66% 0 mm WeatherDisplay:10.37 W/m2 CLR
15:50 28.9 °C 22.2 °C 1013.8 hPa West 1.6 km/h 3.2 km/h 67% 0 mm WeatherDisplay:10.37 W/m2 CLR
16:00 29.1 °C 22.3 °C 1013.8 hPa Calm   1.6 km/h 67% 0 mm WeatherDisplay:10.37 W/m2 CLR
16:10 28.8 °C 21.8 °C 1013.8 hPa Calm   1.6 km/h 66% 0 mm WeatherDisplay:10.37 W/m2 CLR
16:20 28.8 °C 22.3 °C 1013.8 hPa Calm     68% 0 mm WeatherDisplay:10.37 W/m2 CLR
16:30 28.8 °C 22.3 °C 1013.8 hPa Calm   1.6 km/h 68% 0 mm WeatherDisplay:10.37 W/m2 CLR
16:40 28.8 °C 22.1 °C 1013.8 hPa Calm   3.2 km/h 67% 0 mm WeatherDisplay:10.37 W/m2 CLR
16:50 28.7 °C 22.4 °C 1013.8 hPa Calm     69% 0 mm WeatherDisplay:10.37 W/m2 CLR
17:00 28.1 °C 22.5 °C 1013.8 hPa Calm     72% 0 mm WeatherDisplay:10.37 W/m2 CLR
17:10 27.1 °C 22.8 °C 1014.8 hPa Calm   1.6 km/h 77% 1.78 mm WeatherDisplay:10.37 W/m2 RA
17:20 24.8 °C 22.1 °C 1014.8 hPa Calm   3.2 km/h 85% 4.32 mm WeatherDisplay:10.37 W/m2 RA
17:30 23.8 °C 21.3 °C 1014.8 hPa Calm   3.2 km/h 86% 3.56 mm WeatherDisplay:10.37 W/m2 RA
17:40 22.9 °C 20.8 °C 1014.8 hPa Calm   3.2 km/h 88% 3.56 mm WeatherDisplay:10.37 W/m2 RA
17:50 22.6 °C 20.9 °C 1014.8 hPa Calm   1.6 km/h 90% 3.3 mm WeatherDisplay:10.37 W/m2 RA
18:00 22.7 °C 21.1 °C 1015.1 hPa Calm   1.6 km/h 91% 2.54 mm WeatherDisplay:10.37 W/m2 RA
18:10 22.7 °C 21.3 °C 1015.1 hPa Calm   1.6 km/h 92% 2.03 mm WeatherDisplay:10.37 W/m2 RA
18:20 22.6 °C 21.3 °C 1014.8 hPa Calm     92% 0.25 mm WeatherDisplay:10.37 W/m2 CLR
18:30 22.6 °C 21.2 °C 1014.8 hPa Calm   1.6 km/h 92% 0 mm WeatherDisplay:10.37 W/m2 CLR
18:40 22.7 °C 21.3 °C 1014.8 hPa Calm     92% 0 mm WeatherDisplay:10.37 W/m2 CLR
18:50 22.6 °C 21.2 °C 1015.1 hPa Calm     92% 0 mm WeatherDisplay:10.37 W/m2 CLR
19:00 22.6 °C 21.2 °C 1015.1 hPa Calm   1.6 km/h 92% 0 mm WeatherDisplay:10.37 W/m2 CLR
19:10 22.6 °C 21.2 °C 1015.5 hPa Calm   1.6 km/h 92% 0 mm WeatherDisplay:10.37 W/m2 CLR
19:20 22.7 °C 21.6 °C 1015.5 hPa Calm     93% 0.25 mm WeatherDisplay:10.37 W/m2 CLR
19:30 22.8 °C 21.7 °C 1015.5 hPa Calm     93% 0 mm WeatherDisplay:10.37 W/m2 CLR
19:40 22.9 °C 21.7 °C 1015.5 hPa Calm     93% 0 mm WeatherDisplay:10.37 W/m2 CLR
19:50 22.9 °C 21.7 °C 1015.5 hPa Calm     93% 0 mm WeatherDisplay:10.37 W/m2 CLR
20:00 22.9 °C 21.8 °C 1015.5 hPa Calm     93% 0 mm WeatherDisplay:10.37 W/m2 CLR
20:10 22.9 °C 21.8 °C 1015.5 hPa Calm     93% 0 mm WeatherDisplay:10.37 W/m2 CLR
20:20 22.9 °C 21.8 °C 1015.5 hPa Calm     93% 0 mm WeatherDisplay:10.37 W/m2 CLR
20:30 22.9 °C 21.8 °C 1015.5 hPa Calm     93% 0 mm WeatherDisplay:10.37 W/m2 CLR
20:40 23 °C 21.8 °C 1015.8 hPa Calm     93% 0 mm WeatherDisplay:10.37 W/m2 CLR
20:50 23.1 °C 21.9 °C 1016.1 hPa Calm     93% 0 mm WeatherDisplay:10.37 W/m2 CLR
21:00 23.2 °C 21.9 °C 1016.1 hPa Calm     93% 0 mm WeatherDisplay:10.37 W/m2 CLR
21:10 23.2 °C 21.9 °C 1015.8 hPa Calm     93% 0 mm WeatherDisplay:10.37 W/m2 CLR
21:20 23.1 °C 21.9 °C 1015.8 hPa Calm     93% 0 mm WeatherDisplay:10.37 W/m2 CLR
21:30 23.1 °C 21.9 °C 1015.8 hPa Calm     93% 0 mm WeatherDisplay:10.37 W/m2 CLR
21:40 23.1 °C 21.8 °C 1015.8 hPa Calm     93% 0 mm WeatherDisplay:10.37 W/m2 CLR
21:50 22.9 °C 21.8 °C 1015.8 hPa Calm     93% 0 mm WeatherDisplay:10.37 W/m2 CLR
22:00 22.9 °C 21.7 °C 1016.1 hPa Calm     93% 0 mm WeatherDisplay:10.37 W/m2 CLR
22:10 22.8 °C 21.6 °C 1016.1 hPa Calm     93% 0 mm WeatherDisplay:10.37 W/m2 CLR
22:20 22.7 °C 21.6 °C 1016.5 hPa Calm     93% 0 mm WeatherDisplay:10.37 W/m2 CLR
22:30 22.7 °C 21.6 °C 1016.5 hPa Calm     93% 0 mm WeatherDisplay:10.37 W/m2 CLR
22:40 22.8 °C 21.6 °C 1016.5 hPa Calm     93% 0 mm WeatherDisplay:10.37 W/m2 CLR
22:50 22.7 °C 21.5 °C 1016.8 hPa Calm     93% 0 mm WeatherDisplay:10.37 W/m2 CLR
23:00 22.7 °C 21.6 °C 1016.8 hPa Calm     93% 0 mm WeatherDisplay:10.37 W/m2 CLR
23:10 22.7 °C 21.6 °C 1016.8 hPa Calm   1.6 km/h 93% 0 mm WeatherDisplay:10.37 W/m2 CLR
23:20 22.7 °C 21.5 °C 1017.2 hPa Calm     93% 0 mm WeatherDisplay:10.37 W/m2 CLR
23:30 22.6 °C 21.4 °C 1017.2 hPa Calm     93% 0 mm WeatherDisplay:10.37 W/m2 CLR
23:40 22.6 °C 21.4 °C 1017.2 hPa Calm     93% 0 mm WeatherDisplay:10.37 W/m2 CLR
23:50 22.5 °C 21.3 °C 1017.5 hPa Calm     93% 0 mm WeatherDisplay:10.37 W/m2 CLR
Piedmont Bend
Compliments of Weather Underground - 4 mb